sensor_id;sensor_type;location;lat;lon;timestamp;pressure;altitude;pressure_sealevel;temperature;humidity
58658;BME280;44428;45.630;13.786;2023-01-26T00:01:44;101697.63;;;4.12;56.81
58658;BME280;44428;45.630;13.786;2023-01-26T00:04:10;101705.47;;;4.12;56.78
58658;BME280;44428;45.630;13.786;2023-01-26T00:06:36;101697.63;;;4.12;56.97
58658;BME280;44428;45.630;13.786;2023-01-26T00:09:02;101687.25;;;4.09;57.57
58658;BME280;44428;45.630;13.786;2023-01-26T00:11:29;101701.22;;;4.08;57.67
58658;BME280;44428;45.630;13.786;2023-01-26T00:13:57;101678.59;;;4.07;58.43
58658;BME280;44428;45.630;13.786;2023-01-26T00:16:23;101675.06;;;4.08;58.17
58658;BME280;44428;45.630;13.786;2023-01-26T00:18:49;101685.50;;;4.08;58.39
58658;BME280;44428;45.630;13.786;2023-01-26T00:21:17;101683.72;;;4.10;58.42
58658;BME280;44428;45.630;13.786;2023-01-26T00:23:43;101686.34;;;4.10;58.40
58658;BME280;44428;45.630;13.786;2023-01-26T00:26:15;101682.84;;;4.11;58.62
58658;BME280;44428;45.630;13.786;2023-01-26T00:28:41;101693.25;;;4.13;58.42
58658;BME280;44428;45.630;13.786;2023-01-26T00:31:14;101676.78;;;4.09;58.56
58658;BME280;44428;45.630;13.786;2023-01-26T00:33:39;101667.94;;;4.13;58.41
58658;BME280;44428;45.630;13.786;2023-01-26T00:36:08;101666.16;;;4.16;58.33
58658;BME280;44428;45.630;13.786;2023-01-26T00:38:34;101659.22;;;4.15;58.48
58658;BME280;44428;45.630;13.786;2023-01-26T00:41:00;101680.16;;;4.15;58.96
58658;BME280;44428;45.630;13.786;2023-01-26T00:43:25;101649.00;;;4.05;58.73
58658;BME280;44428;45.630;13.786;2023-01-26T00:45:51;101664.59;;;4.08;58.98
58658;BME280;44428;45.630;13.786;2023-01-26T00:48:18;101664.44;;;4.15;59.09
58658;BME280;44428;45.630;13.786;2023-01-26T00:50:44;101652.25;;;4.13;59.05
58658;BME280;44428;45.630;13.786;2023-01-26T00:53:10;101665.31;;;4.15;59.11
58658;BME280;44428;45.630;13.786;2023-01-26T00:55:36;101654.06;;;4.11;59.52
58658;BME280;44428;45.630;13.786;2023-01-26T00:58:04;101662.81;;;4.10;59.16
58658;BME280;44428;45.630;13.786;2023-01-26T01:00:30;101636.66;;;4.10;59.45
58658;BME280;44428;45.630;13.786;2023-01-26T01:02:56;101650.63;;;4.09;59.53
58658;BME280;44428;45.630;13.786;2023-01-26T01:05:23;101650.56;;;4.12;59.52
58658;BME280;44428;45.630;13.786;2023-01-26T01:07:49;101643.63;;;4.11;59.67
58658;BME280;44428;45.630;13.786;2023-01-26T01:10:15;101645.31;;;4.12;59.43
58658;BME280;44428;45.630;13.786;2023-01-26T01:12:41;101634.84;;;4.12;59.68
58658;BME280;44428;45.630;13.786;2023-01-26T01:15:07;101629.88;;;4.03;60.05
58658;BME280;44428;45.630;13.786;2023-01-26T01:17:33;101631.50;;;4.07;59.87
58658;BME280;44428;45.630;13.786;2023-01-26T01:20:05;101643.63;;;4.11;60.09
58658;BME280;44428;45.630;13.786;2023-01-26T01:22:32;101629.81;;;4.06;60.41
58658;BME280;44428;45.630;13.786;2023-01-26T01:24:57;101615.72;;;4.10;60.74
58658;BME280;44428;45.630;13.786;2023-01-26T01:27:23;101624.56;;;4.06;60.81
58658;BME280;44428;45.630;13.786;2023-01-26T01:29:50;101615.81;;;4.07;60.96
58658;BME280;44428;45.630;13.786;2023-01-26T01:32:16;101620.28;;;4.04;61.16
58658;BME280;44428;45.630;13.786;2023-01-26T01:34:42;101619.25;;;4.09;61.34
58658;BME280;44428;45.630;13.786;2023-01-26T01:37:08;101600.03;;;4.10;61.01
58658;BME280;44428;45.630;13.786;2023-01-26T01:39:33;101624.47;;;4.09;61.36
58658;BME280;44428;45.630;13.786;2023-01-26T01:41:59;101608.78;;;4.09;62.01
58658;BME280;44428;45.630;13.786;2023-01-26T01:44:25;101608.88;;;4.06;61.47
58658;BME280;44428;45.630;13.786;2023-01-26T01:46:57;101626.38;;;4.04;62.09
58658;BME280;44428;45.630;13.786;2023-01-26T01:49:33;101635.03;;;4.06;61.72
58658;BME280;44428;45.630;13.786;2023-01-26T01:52:05;101617.59;;;4.05;62.10
58658;BME280;44428;45.630;13.786;2023-01-26T01:54:38;101597.69;;;4.01;61.89
58658;BME280;44428;45.630;13.786;2023-01-26T01:57:10;101613.34;;;4.03;62.15
58658;BME280;44428;45.630;13.786;2023-01-26T02:00:14;101603.75;;;4.03;62.25
58658;BME280;44428;45.630;13.786;2023-01-26T02:02:40;101591.63;;;3.99;62.29
58658;BME280;44428;45.630;13.786;2023-01-26T02:05:21;101576.81;;;4.00;62.96
58658;BME280;44428;45.630;13.786;2023-01-26T02:07:49;101586.41;;;3.99;62.71
58658;BME280;44428;45.630;13.786;2023-01-26T02:10:18;101584.59;;;4.01;62.44
58658;BME280;44428;45.630;13.786;2023-01-26T02:12:52;101581.06;;;4.02;62.31
58658;BME280;44428;45.630;13.786;2023-01-26T02:15:21;101570.63;;;4.02;62.22
58658;BME280;44428;45.630;13.786;2023-01-26T02:17:50;101574.31;;;3.95;61.92
58658;BME280;44428;45.630;13.786;2023-01-26T02:26:14;101568.16;;;3.98;60.91
58658;BME280;44428;45.630;13.786;2023-01-26T02:28:41;101567.47;;;3.91;61.01
58658;BME280;44428;45.630;13.786;2023-01-26T02:31:09;101536.91;;;3.93;60.52
58658;BME280;44428;45.630;13.786;2023-01-26T02:33:36;101570.81;;;3.96;60.17
58658;BME280;44428;45.630;13.786;2023-01-26T02:36:04;101566.31;;;4.01;60.19
58658;BME280;44428;45.630;13.786;2023-01-26T02:38:50;101570.72;;;3.99;60.14
58658;BME280;44428;45.630;13.786;2023-01-26T02:41:18;101536.03;;;3.94;60.05
58658;BME280;44428;45.630;13.786;2023-01-26T02:44:07;101523.06;;;3.89;60.74
58658;BME280;44428;45.630;13.786;2023-01-26T02:46:34;101518.94;;;3.82;61.15
58658;BME280;44428;45.630;13.786;2023-01-26T02:49:00;101532.75;;;3.86;60.43
58658;BME280;44428;45.630;13.786;2023-01-26T02:51:44;101523.91;;;3.90;60.43
58658;BME280;44428;45.630;13.786;2023-01-26T02:54:10;101515.56;;;3.79;60.93
58658;BME280;44428;45.630;13.786;2023-01-26T02:56:57;101526.69;;;3.85;60.92
58658;BME280;44428;45.630;13.786;2023-01-26T02:59:23;101520.88;;;3.76;61.16
58658;BME280;44428;45.630;13.786;2023-01-26T03:01:50;101489.31;;;3.82;61.05
58658;BME280;44428;45.630;13.786;2023-01-26T03:04:17;101503.09;;;3.87;61.42
58658;BME280;44428;45.630;13.786;2023-01-26T03:06:42;101503.28;;;3.81;61.40
58658;BME280;44428;45.630;13.786;2023-01-26T03:09:08;101507.66;;;3.80;61.66
58658;BME280;44428;45.630;13.786;2023-01-26T03:11:34;101504.16;;;3.81;61.23
58658;BME280;44428;45.630;13.786;2023-01-26T03:14:08;101503.28;;;3.81;61.32
58658;BME280;44428;45.630;13.786;2023-01-26T03:16:34;101494.72;;;3.76;61.13
58658;BME280;44428;45.630;13.786;2023-01-26T03:18:59;101480.75;;;3.77;61.25
58658;BME280;44428;45.630;13.786;2023-01-26T03:21:28;101497.25;;;3.79;61.08
58658;BME280;44428;45.630;13.786;2023-01-26T03:24:13;101487.50;;;3.84;60.91
58658;BME280;44428;45.630;13.786;2023-01-26T03:26:59;101477.22;;;3.78;60.55
58658;BME280;44428;45.630;13.786;2023-01-26T03:29:44;101485.97;;;3.77;60.54
58658;BME280;44428;45.630;13.786;2023-01-26T03:32:10;101484.28;;;3.76;60.79
58658;BME280;44428;45.630;13.786;2023-01-26T03:34:37;101477.31;;;3.75;60.51
58658;BME280;44428;45.630;13.786;2023-01-26T03:37:04;101471.28;;;3.73;60.67
58658;BME280;44428;45.630;13.786;2023-01-26T03:39:39;101474.66;;;3.76;60.48
58658;BME280;44428;45.630;13.786;2023-01-26T03:42:23;101485.25;;;3.72;60.76
58658;BME280;44428;45.630;13.786;2023-01-26T03:45:07;101480.09;;;3.68;60.51
58658;BME280;44428;45.630;13.786;2023-01-26T03:47:52;101480.09;;;3.70;60.22
58658;BME280;44428;45.630;13.786;2023-01-26T03:50:36;101465.44;;;3.64;60.36
58658;BME280;44428;45.630;13.786;2023-01-26T03:53:22;101464.53;;;3.65;60.01
58658;BME280;44428;45.630;13.786;2023-01-26T03:56:09;101463.72;;;3.63;59.94
58658;BME280;44428;45.630;13.786;2023-01-26T03:58:57;101462.00;;;3.62;59.75
58658;BME280;44428;45.630;13.786;2023-01-26T04:01:26;101449.75;;;3.64;59.50
58658;BME280;44428;45.630;13.786;2023-01-26T04:03:57;101458.50;;;3.63;59.66
58658;BME280;44428;45.630;13.786;2023-01-26T04:06:45;101432.38;;;3.63;59.52
58658;BME280;44428;45.630;13.786;2023-01-26T04:09:31;101455.97;;;3.60;59.19
58658;BME280;44428;45.630;13.786;2023-01-26T04:11:57;101446.41;;;3.59;59.21
58658;BME280;44428;45.630;13.786;2023-01-26T04:14:23;101449.84;;;3.61;59.15
58658;BME280;44428;45.630;13.786;2023-01-26T04:17:08;101436.81;;;3.60;59.17
58658;BME280;44428;45.630;13.786;2023-01-26T04:19:52;101411.66;;;3.57;58.78
58658;BME280;44428;45.630;13.786;2023-01-26T04:22:40;101437.69;;;3.60;58.93
58658;BME280;44428;45.630;13.786;2023-01-26T04:25:16;101441.38;;;3.53;58.47
58658;BME280;44428;45.630;13.786;2023-01-26T04:27:43;101436.88;;;3.58;58.40
58658;BME280;44428;45.630;13.786;2023-01-26T04:30:12;101417.94;;;3.50;58.64
58658;BME280;44428;45.630;13.786;2023-01-26T04:32:38;101417.06;;;3.51;58.01
58658;BME280;44428;45.630;13.786;2023-01-26T04:35:08;101397.94;;;3.49;58.47
58658;BME280;44428;45.630;13.786;2023-01-26T04:37:34;101436.03;;;3.56;57.60
58658;BME280;44428;45.630;13.786;2023-01-26T04:40:00;101403.16;;;3.49;57.91
58658;BME280;44428;45.630;13.786;2023-01-26T04:42:28;101390.50;;;3.35;57.53
58658;BME280;44428;45.630;13.786;2023-01-26T04:44:57;101416.16;;;3.52;57.08
58658;BME280;44428;45.630;13.786;2023-01-26T04:47:23;101413.53;;;3.52;57.21
58658;BME280;44428;45.630;13.786;2023-01-26T04:49:49;101403.00;;;3.55;56.88
58658;BME280;44428;45.630;13.786;2023-01-26T04:52:18;101408.41;;;3.49;57.30
58658;BME280;44428;45.630;13.786;2023-01-26T04:54:44;101431.00;;;3.50;57.52
58658;BME280;44428;45.630;13.786;2023-01-26T04:57:09;101408.41;;;3.49;57.36
58658;BME280;44428;45.630;13.786;2023-01-26T04:59:36;101438.06;;;3.48;57.51
58658;BME280;44428;45.630;13.786;2023-01-26T05:02:02;101416.25;;;3.49;57.03
58658;BME280;44428;45.630;13.786;2023-01-26T05:04:29;101421.50;;;3.48;56.79
58658;BME280;44428;45.630;13.786;2023-01-26T05:06:55;101422.47;;;3.45;56.87
58658;BME280;44428;45.630;13.786;2023-01-26T05:09:23;101432.91;;;3.45;57.22
58658;BME280;44428;45.630;13.786;2023-01-26T05:12:03;101419.97;;;3.40;57.21
58658;BME280;44428;45.630;13.786;2023-01-26T05:15:23;101417.53;;;3.34;57.12
58658;BME280;44428;45.630;13.786;2023-01-26T05:17:58;101407.03;;;3.36;56.66
58658;BME280;44428;45.630;13.786;2023-01-26T05:20:38;101412.19;;;3.39;56.29
58658;BME280;44428;45.630;13.786;2023-01-26T05:23:13;101403.53;;;3.37;56.00
58658;BME280;44428;45.630;13.786;2023-01-26T05:25:59;101398.41;;;3.34;56.41
58658;BME280;44428;45.630;13.786;2023-01-26T05:28:25;101408.84;;;3.34;56.42
58658;BME280;44428;45.630;13.786;2023-01-26T05:30:51;101413.41;;;3.27;56.24
58658;BME280;44428;45.630;13.786;2023-01-26T05:33:16;101415.94;;;3.29;56.43
58658;BME280;44428;45.630;13.786;2023-01-26T05:35:50;101417.66;;;3.30;55.94
58658;BME280;44428;45.630;13.786;2023-01-26T05:38:18;101417.66;;;3.30;56.23
58658;BME280;44428;45.630;13.786;2023-01-26T05:40:44;101417.84;;;3.24;56.68
58658;BME280;44428;45.630;13.786;2023-01-26T05:43:11;101407.28;;;3.27;56.38
58658;BME280;44428;45.630;13.786;2023-01-26T05:45:43;101414.16;;;3.31;56.42
58658;BME280;44428;45.630;13.786;2023-01-26T05:48:11;101410.81;;;3.26;56.68
58658;BME280;44428;45.630;13.786;2023-01-26T05:50:37;101426.31;;;3.32;56.71
58658;BME280;44428;45.630;13.786;2023-01-26T05:53:18;101395.06;;;3.29;56.86
58658;BME280;44428;45.630;13.786;2023-01-26T05:55:44;101397.81;;;3.24;56.96
58658;BME280;44428;45.630;13.786;2023-01-26T05:58:10;101393.44;;;3.25;56.91
58658;BME280;44428;45.630;13.786;2023-01-26T06:00:37;101396.84;;;3.27;56.68
58658;BME280;44428;45.630;13.786;2023-01-26T06:03:08;101378.38;;;3.33;56.30
58658;BME280;44428;45.630;13.786;2023-01-26T06:05:34;101421.09;;;3.32;56.41
58658;BME280;44428;45.630;13.786;2023-01-26T06:08:06;101391.34;;;3.36;56.26
58658;BME280;44428;45.630;13.786;2023-01-26T06:10:45;101401.81;;;3.36;56.96
58658;BME280;44428;45.630;13.786;2023-01-26T06:13:24;101407.13;;;3.33;56.87
58658;BME280;44428;45.630;13.786;2023-01-26T06:16:03;101397.59;;;3.32;56.85
58658;BME280;44428;45.630;13.786;2023-01-26T06:18:29;101392.34;;;3.32;57.27
58658;BME280;44428;45.630;13.786;2023-01-26T06:20:59;101398.50;;;3.31;56.86
58658;BME280;44428;45.630;13.786;2023-01-26T06:23:26;101401.91;;;3.33;57.05
58658;BME280;44428;45.630;13.786;2023-01-26T06:25:57;101399.34;;;3.31;57.19
58658;BME280;44428;45.630;13.786;2023-01-26T06:28:23;101388.13;;;3.28;57.22
58658;BME280;44428;45.630;13.786;2023-01-26T06:30:50;101407.22;;;3.30;57.76
58658;BME280;44428;45.630;13.786;2023-01-26T06:33:17;101396.75;;;3.30;57.44
58658;BME280;44428;45.630;13.786;2023-01-26T06:35:44;101393.38;;;3.26;57.70
58658;BME280;44428;45.630;13.786;2023-01-26T06:38:11;101414.25;;;3.28;57.61
58658;BME280;44428;45.630;13.786;2023-01-26T06:40:36;101419.31;;;3.34;57.59
58658;BME280;44428;45.630;13.786;2023-01-26T06:43:02;101421.09;;;3.32;57.36
58658;BME280;44428;45.630;13.786;2023-01-26T06:45:28;101405.31;;;3.35;57.14
58658;BME280;44428;45.630;13.786;2023-01-26T06:47:54;101414.16;;;3.31;57.08
58658;BME280;44428;45.630;13.786;2023-01-26T06:50:24;101412.34;;;3.33;57.23
58658;BME280;44428;45.630;13.786;2023-01-26T06:52:53;101393.28;;;3.31;56.99
58658;BME280;44428;45.630;13.786;2023-01-26T06:55:42;101417.56;;;3.33;57.17
58658;BME280;44428;45.630;13.786;2023-01-26T06:58:26;101407.94;;;3.35;56.81
58658;BME280;44428;45.630;13.786;2023-01-26T07:01:20;101424.44;;;3.37;57.25
58658;BME280;44428;45.630;13.786;2023-01-26T07:03:47;101428.00;;;3.33;57.20
58658;BME280;44428;45.630;13.786;2023-01-26T07:06:13;101455.94;;;3.31;57.45
58658;BME280;44428;45.630;13.786;2023-01-26T07:08:39;101409.63;;;3.36;57.08
58658;BME280;44428;45.630;13.786;2023-01-26T07:11:05;101423.53;;;3.38;56.75
58658;BME280;44428;45.630;13.786;2023-01-26T07:13:31;101449.56;;;3.41;56.37
58658;BME280;44428;45.630;13.786;2023-01-26T07:16:06;101426.03;;;3.41;56.30
58658;BME280;44428;45.630;13.786;2023-01-26T07:18:33;101427.78;;;3.42;56.73
58658;BME280;44428;45.630;13.786;2023-01-26T07:21:00;101443.56;;;3.37;56.65
58658;BME280;44428;45.630;13.786;2023-01-26T07:23:26;101431.50;;;3.33;56.84
58658;BME280;44428;45.630;13.786;2023-01-26T07:25:51;101429.56;;;3.40;56.57
58658;BME280;44428;45.630;13.786;2023-01-26T07:28:17;101451.03;;;3.51;55.66
58658;BME280;44428;45.630;13.786;2023-01-26T07:30:43;101439.75;;;3.49;55.72
58658;BME280;44428;45.630;13.786;2023-01-26T07:33:09;101417.06;;;3.51;55.37
58658;BME280;44428;45.630;13.786;2023-01-26T07:35:34;101410.66;;;3.61;54.98
58658;BME280;44428;45.630;13.786;2023-01-26T07:38:03;101416.63;;;3.65;55.02
58658;BME280;44428;45.630;13.786;2023-01-26T07:40:28;101413.97;;;3.66;54.70
58658;BME280;44428;45.630;13.786;2023-01-26T07:42:55;101418.22;;;3.71;54.46
58658;BME280;44428;45.630;13.786;2023-01-26T07:45:44;101402.34;;;3.77;54.71
58658;BME280;44428;45.630;13.786;2023-01-26T07:48:10;101411.00;;;3.79;54.63
58658;BME280;44428;45.630;13.786;2023-01-26T07:50:35;101410.91;;;3.82;54.21
58658;BME280;44428;45.630;13.786;2023-01-26T07:53:01;101419.53;;;3.84;54.18
58658;BME280;44428;45.630;13.786;2023-01-26T07:55:27;101421.06;;;3.91;53.79
58658;BME280;44428;45.630;13.786;2023-01-26T07:57:52;101453.28;;;3.92;53.75
58658;BME280;44428;45.630;13.786;2023-01-26T08:00:18;101429.59;;;3.96;53.45
58658;BME280;44428;45.630;13.786;2023-01-26T08:02:48;101419.03;;;3.99;53.32
58658;BME280;44428;45.630;13.786;2023-01-26T08:05:14;101424.38;;;3.96;53.44
58658;BME280;44428;45.630;13.786;2023-01-26T08:07:40;101422.47;;;4.01;53.31
58658;BME280;44428;45.630;13.786;2023-01-26T08:10:06;101417.16;;;4.04;52.78
58658;BME280;44428;45.630;13.786;2023-01-26T08:12:36;101418.75;;;4.08;52.79
58658;BME280;44428;45.630;13.786;2023-01-26T08:15:02;101414.44;;;4.07;53.12
58658;BME280;44428;45.630;13.786;2023-01-26T08:17:28;101419.38;;;4.17;52.69
58658;BME280;44428;45.630;13.786;2023-01-26T08:19:54;101437.59;;;4.20;52.88
58658;BME280;44428;45.630;13.786;2023-01-26T08:22:20;101434.28;;;4.15;52.96
58658;BME280;44428;45.630;13.786;2023-01-26T08:24:46;101449.88;;;4.18;52.81
58658;BME280;44428;45.630;13.786;2023-01-26T08:27:12;101442.50;;;4.29;52.93
58658;BME280;44428;45.630;13.786;2023-01-26T08:29:39;101457.22;;;4.33;53.15
58658;BME280;44428;45.630;13.786;2023-01-26T08:32:05;101442.22;;;4.38;52.62
58658;BME280;44428;45.630;13.786;2023-01-26T08:34:31;101450.78;;;4.43;52.71
58658;BME280;44428;45.630;13.786;2023-01-26T08:36:56;101452.34;;;4.49;52.71
58658;BME280;44428;45.630;13.786;2023-01-26T08:39:22;101453.22;;;4.48;52.67
58658;BME280;44428;45.630;13.786;2023-01-26T08:41:48;101472.22;;;4.54;52.53
58658;BME280;44428;45.630;13.786;2023-01-26T08:44:13;101459.56;;;4.42;52.79
58658;BME280;44428;45.630;13.786;2023-01-26T08:46:39;101455.81;;;4.49;52.91
58658;BME280;44428;45.630;13.786;2023-01-26T08:49:05;101462.75;;;4.50;52.43
58658;BME280;44428;45.630;13.786;2023-01-26T08:51:30;101478.25;;;4.56;52.77
58658;BME280;44428;45.630;13.786;2023-01-26T08:53:56;101469.50;;;4.57;52.58
58658;BME280;44428;45.630;13.786;2023-01-26T08:56:22;101458.03;;;4.62;52.35
58658;BME280;44428;45.630;13.786;2023-01-26T08:58:47;101497.13;;;5.41;50.77
58658;BME280;44428;45.630;13.786;2023-01-26T09:01:14;101458.66;;;7.74;45.43
58658;BME280;44428;45.630;13.786;2023-01-26T09:03:41;101449.53;;;10.04;40.51
58658;BME280;44428;45.630;13.786;2023-01-26T09:06:09;101448.03;;;11.07;37.24
58658;BME280;44428;45.630;13.786;2023-01-26T09:08:36;101437.81;;;12.41;34.86
58658;BME280;44428;45.630;13.786;2023-01-26T09:11:04;101431.09;;;12.62;33.74
58658;BME280;44428;45.630;13.786;2023-01-26T09:13:30;101417.75;;;13.27;32.80
58658;BME280;44428;45.630;13.786;2023-01-26T09:15:56;101405.84;;;14.07;31.85
58658;BME280;44428;45.630;13.786;2023-01-26T09:18:21;101419.19;;;13.57;31.31
58658;BME280;44428;45.630;13.786;2023-01-26T09:20:47;101415.72;;;14.99;29.77
58658;BME280;44428;45.630;13.786;2023-01-26T09:23:16;101408.56;;;14.88;29.49
58658;BME280;44428;45.630;13.786;2023-01-26T09:25:43;101420.16;;;13.93;30.74
58658;BME280;44428;45.630;13.786;2023-01-26T09:28:09;101398.59;;;14.09;30.02
58658;BME280;44428;45.630;13.786;2023-01-26T09:30:34;101404.66;;;14.35;29.90
58658;BME280;44428;45.630;13.786;2023-01-26T09:33:02;101405.81;;;14.55;29.55
58658;BME280;44428;45.630;13.786;2023-01-26T09:35:28;101411.41;;;14.39;29.65
58658;BME280;44428;45.630;13.786;2023-01-26T09:37:54;101420.38;;;14.49;29.37
58658;BME280;44428;45.630;13.786;2023-01-26T09:40:38;101431.66;;;14.77;28.92
58658;BME280;44428;45.630;13.786;2023-01-26T09:46:19;101405.09;;;14.53;28.14
58658;BME280;44428;45.630;13.786;2023-01-26T09:51:26;101415.84;;;14.03;28.95
58658;BME280;44428;45.630;13.786;2023-01-26T09:53:57;101421.28;;;14.96;28.59
58658;BME280;44428;45.630;13.786;2023-01-26T09:56:28;101425.16;;;15.15;27.43
58658;BME280;44428;45.630;13.786;2023-01-26T09:59:02;101410.63;;;15.19;27.89
58658;BME280;44428;45.630;13.786;2023-01-26T10:01:39;101458.22;;;15.57;27.22
58658;BME280;44428;45.630;13.786;2023-01-26T10:04:13;101432.94;;;15.29;27.43
58658;BME280;44428;45.630;13.786;2023-01-26T10:06:43;101412.56;;;15.62;26.97
58658;BME280;44428;45.630;13.786;2023-01-26T10:09:43;101399.25;;;15.73;26.51
58658;BME280;44428;45.630;13.786;2023-01-26T10:12:31;101403.56;;;15.85;26.24
58658;BME280;44428;45.630;13.786;2023-01-26T10:15:03;101397.31;;;15.75;26.39
58658;BME280;44428;45.630;13.786;2023-01-26T10:17:33;101390.56;;;15.71;26.47
58658;BME280;44428;45.630;13.786;2023-01-26T10:25:12;101422.16;;;16.19;26.13
58658;BME280;44428;45.630;13.786;2023-01-26T10:27:38;101412.06;;;17.58;24.41
58658;BME280;44428;45.630;13.786;2023-01-26T10:30:04;101411.81;;;18.97;23.10
58658;BME280;44428;45.630;13.786;2023-01-26T10:32:30;101414.97;;;18.83;22.95
58658;BME280;44428;45.630;13.786;2023-01-26T10:34:56;101410.88;;;18.79;23.04
58658;BME280;44428;45.630;13.786;2023-01-26T10:37:25;101427.25;;;18.56;23.04
58658;BME280;44428;45.630;13.786;2023-01-26T10:42:28;101404.00;;;17.89;24.15
58658;BME280;44428;45.630;13.786;2023-01-26T10:44:55;101402.59;;;18.23;23.44
58658;BME280;44428;45.630;13.786;2023-01-26T10:47:22;101402.66;;;19.09;22.81
58658;BME280;44428;45.630;13.786;2023-01-26T10:49:48;101400.88;;;19.55;22.08
58658;BME280;44428;45.630;13.786;2023-01-26T10:54:46;101410.19;;;20.86;20.82
58658;BME280;44428;45.630;13.786;2023-01-26T10:59:49;101410.00;;;19.35;22.13
58658;BME280;44428;45.630;13.786;2023-01-26T11:02:18;101403.34;;;17.75;23.72
58658;BME280;44428;45.630;13.786;2023-01-26T11:07:40;101409.06;;;18.50;22.94
58658;BME280;44428;45.630;13.786;2023-01-26T11:10:26;101405.88;;;19.03;22.44
58658;BME280;44428;45.630;13.786;2023-01-26T11:13:06;101386.78;;;18.79;22.63
58658;BME280;44428;45.630;13.786;2023-01-26T11:15:35;101405.13;;;18.73;22.56
58658;BME280;44428;45.630;13.786;2023-01-26T11:18:14;101394.03;;;16.89;24.23
58658;BME280;44428;45.630;13.786;2023-01-26T11:23:56;101389.34;;;17.93;23.92
58658;BME280;44428;45.630;13.786;2023-01-26T11:34:55;101357.59;;;17.09;24.12
58658;BME280;44428;45.630;13.786;2023-01-26T11:40:18;101366.59;;;15.37;25.88
58658;BME280;44428;45.630;13.786;2023-01-26T11:45:53;101354.28;;;15.14;26.61
58658;BME280;44428;45.630;13.786;2023-01-26T11:55:12;101342.41;;;14.61;26.85
58658;BME280;44428;45.630;13.786;2023-01-26T11:57:45;101316.53;;;14.75;26.33
58658;BME280;44428;45.630;13.786;2023-01-26T12:00:17;101329.00;;;15.63;25.64
58658;BME280;44428;45.630;13.786;2023-01-26T12:02:52;101328.19;;;15.94;24.61
58658;BME280;44428;45.630;13.786;2023-01-26T12:05:25;101369.75;;;15.20;24.91
58658;BME280;44428;45.630;13.786;2023-01-26T12:15:53;101299.78;;;16.16;23.68
58658;BME280;44428;45.630;13.786;2023-01-26T12:18:35;101302.97;;;15.00;25.02
58658;BME280;44428;45.630;13.786;2023-01-26T12:21:09;101293.00;;;14.35;25.78
58658;BME280;44428;45.630;13.786;2023-01-26T12:23:57;101267.44;;;14.56;25.10
58658;BME280;44428;45.630;13.786;2023-01-26T12:26:31;101272.16;;;13.82;25.94
58658;BME280;44428;45.630;13.786;2023-01-26T12:29:18;101287.13;;;14.18;25.78
58658;BME280;44428;45.630;13.786;2023-01-26T12:34:24;101274.38;;;14.46;25.66
58658;BME280;44428;45.630;13.786;2023-01-26T12:44:59;101267.78;;;15.51;24.82
58658;BME280;44428;45.630;13.786;2023-01-26T12:47:41;101269.59;;;14.85;25.35
58658;BME280;44428;45.630;13.786;2023-01-26T12:50:23;101253.56;;;15.19;25.12
58658;BME280;44428;45.630;13.786;2023-01-26T12:53:08;101251.00;;;14.74;25.27
58658;BME280;44428;45.630;13.786;2023-01-26T12:55:48;101251.66;;;15.09;24.84
58658;BME280;44428;45.630;13.786;2023-01-26T12:58:21;101239.88;;;14.80;24.62
58658;BME280;44428;45.630;13.786;2023-01-26T13:01:02;101255.28;;;14.30;25.64
58658;BME280;44428;45.630;13.786;2023-01-26T13:03:38;101247.47;;;13.93;25.41
58658;BME280;44428;45.630;13.786;2023-01-26T13:11:02;101213.25;;;14.35;25.59
58658;BME280;44428;45.630;13.786;2023-01-26T13:18:49;101207.13;;;15.11;24.95
58658;BME280;44428;45.630;13.786;2023-01-26T13:23:53;101220.38;;;14.79;25.46
58658;BME280;44428;45.630;13.786;2023-01-26T13:26:23;101211.72;;;15.21;24.63
58658;BME280;44428;45.630;13.786;2023-01-26T13:28:50;101197.53;;;14.32;25.53
58658;BME280;44428;45.630;13.786;2023-01-26T13:31:31;101201.47;;;13.57;26.75
58658;BME280;44428;45.630;13.786;2023-01-26T13:33:58;101154.41;;;13.70;26.54
58658;BME280;44428;45.630;13.786;2023-01-26T13:36:29;101213.78;;;13.10;27.71
58658;BME280;44428;45.630;13.786;2023-01-26T13:39:01;101207.41;;;14.18;26.51
58658;BME280;44428;45.630;13.786;2023-01-26T13:41:27;101203.31;;;14.48;26.13
58658;BME280;44428;45.630;13.786;2023-01-26T13:44:01;101171.16;;;13.95;26.56
58658;BME280;44428;45.630;13.786;2023-01-26T13:46:36;101199.56;;;13.59;27.11
58658;BME280;44428;45.630;13.786;2023-01-26T13:49:04;101200.16;;;14.20;26.34
58658;BME280;44428;45.630;13.786;2023-01-26T13:51:32;101214.19;;;14.34;25.97
58658;BME280;44428;45.630;13.786;2023-01-26T13:56:35;101198.06;;;12.70;28.20
58658;BME280;44428;45.630;13.786;2023-01-26T13:59:12;101157.53;;;11.80;29.38
58658;BME280;44428;45.630;13.786;2023-01-26T14:01:51;101204.97;;;12.60;29.05
58658;BME280;44428;45.630;13.786;2023-01-26T14:04:26;101195.88;;;12.13;29.74
58658;BME280;44428;45.630;13.786;2023-01-26T14:06:56;101178.75;;;10.72;31.24
58658;BME280;44428;45.630;13.786;2023-01-26T14:09:25;101166.22;;;11.03;31.19
58658;BME280;44428;45.630;13.786;2023-01-26T14:11:58;101176.06;;;11.40;30.51
58658;BME280;44428;45.630;13.786;2023-01-26T14:14:35;101186.31;;;11.72;30.39
58658;BME280;44428;45.630;13.786;2023-01-26T14:17:23;101194.00;;;12.15;29.92
58658;BME280;44428;45.630;13.786;2023-01-26T14:19:49;101195.25;;;11.97;30.12
58658;BME280;44428;45.630;13.786;2023-01-26T14:22:15;101197.56;;;11.88;30.31
58658;BME280;44428;45.630;13.786;2023-01-26T14:24:46;101207.53;;;11.18;31.25
58658;BME280;44428;45.630;13.786;2023-01-26T14:27:34;101192.53;;;11.31;31.78
58658;BME280;44428;45.630;13.786;2023-01-26T14:30:05;101171.16;;;10.80;31.69
58658;BME280;44428;45.630;13.786;2023-01-26T14:32:46;101167.81;;;10.49;32.00